createdAt,value
2022-10-21T00:01:09.491Z,23.00
2022-10-21T00:03:38.908Z,19.98
2022-10-21T00:06:08.620Z,24.80
2022-10-21T00:08:36.079Z,22.48
2022-10-21T00:11:05.231Z,18.83
2022-10-21T00:13:35.633Z,18.75
2022-10-21T00:16:04.177Z,19.00
2022-10-21T00:18:33.328Z,19.40
2022-10-21T00:21:00.615Z,23.27
2022-10-21T00:23:29.781Z,15.73
2022-10-21T00:26:00.171Z,24.67
2022-10-21T00:28:32.649Z,21.35
2022-10-21T00:31:04.122Z,20.77
2022-10-21T00:33:30.840Z,17.73
2022-10-21T00:36:07.396Z,27.05
2022-10-21T00:38:36.013Z,17.88
2022-10-21T00:41:05.728Z,24.20
2022-10-21T00:43:32.636Z,21.02
2022-10-21T00:46:07.178Z,16.40
2022-10-21T00:48:45.147Z,22.55
2022-10-21T00:51:19.630Z,21.38
2022-10-21T00:53:49.138Z,17.17
2022-10-21T00:56:28.108Z,18.15
2022-10-21T00:58:57.760Z,18.27
2022-10-21T01:01:27.073Z,15.60
2022-10-21T01:03:55.897Z,17.80
2022-10-21T01:06:25.259Z,19.23
2022-10-21T01:08:54.547Z,17.95
2022-10-21T01:11:23.367Z,16.90
2022-10-21T01:14:05.627Z,19.00
2022-10-21T01:16:52.559Z,21.40
2022-10-21T01:20:12.865Z,17.80
2022-10-21T01:23:07.256Z,16.42
2022-10-21T01:26:04.213Z,16.50
2022-10-21T01:28:33.897Z,17.05
2022-10-21T01:31:21.015Z,15.13
2022-10-21T01:33:57.292Z,17.48
2022-10-21T01:36:53.466Z,17.73
2022-10-21T01:39:35.648Z,14.35
2022-10-21T01:44:36.107Z,15.80
2022-10-21T01:47:13.575Z,16.52
2022-10-21T01:49:48.100Z,16.17
2022-10-21T01:52:17.663Z,18.55
2022-10-21T01:54:56.274Z,12.82
2022-10-21T01:57:29.815Z,14.02
2022-10-21T01:59:58.738Z,12.90
2022-10-21T02:02:28.883Z,14.23
2022-10-21T02:05:02.228Z,15.27
2022-10-21T02:07:29.111Z,19.38
2022-10-21T02:10:00.820Z,17.02
2022-10-21T02:12:32.084Z,12.25
2022-10-21T02:15:08.409Z,15.70
2022-10-21T02:17:37.939Z,12.23
2022-10-21T02:20:11.760Z,15.82
2022-10-21T02:22:41.497Z,17.55
2022-10-21T02:25:18.489Z,13.20
2022-10-21T02:27:45.408Z,16.02
2022-10-21T02:30:12.945Z,19.92
2022-10-21T02:32:50.967Z,14.23
2022-10-21T02:35:44.934Z,18.40
2022-10-21T02:38:14.478Z,10.20
2022-10-21T02:40:58.046Z,18.65
2022-10-21T02:43:32.653Z,15.98
2022-10-21T02:46:10.571Z,18.35
2022-10-21T02:48:42.153Z,19.55
2022-10-21T02:51:09.442Z,18.40
2022-10-21T02:53:36.752Z,22.73
2022-10-21T02:56:06.634Z,20.05
2022-10-21T02:58:36.253Z,13.52
2022-10-21T03:01:03.039Z,15.23
2022-10-21T03:03:29.954Z,13.35
2022-10-21T03:06:00.010Z,14.13
2022-10-21T03:08:29.223Z,17.73
2022-10-21T03:10:56.033Z,23.15
2022-10-21T03:13:25.334Z,19.98
2022-10-21T03:15:52.261Z,17.00
2022-10-21T03:18:19.547Z,17.52
2022-10-21T03:20:49.892Z,18.33
2022-10-21T03:23:20.685Z,17.42
2022-10-21T03:25:47.819Z,14.30
2022-10-21T03:28:14.498Z,10.60
2022-10-21T03:30:43.576Z,16.98
2022-10-21T03:33:12.478Z,16.25
2022-10-21T03:35:39.150Z,19.02
2022-10-21T03:38:08.136Z,12.75
2022-10-21T03:40:34.811Z,16.00
2022-10-21T03:43:01.531Z,18.00
2022-10-21T03:45:30.725Z,16.08
2022-10-21T03:47:57.446Z,14.77
2022-10-21T03:50:26.537Z,14.43
2022-10-21T03:52:59.265Z,20.30
2022-10-21T03:55:26.261Z,17.02
2022-10-21T03:57:53.668Z,15.20
2022-10-21T04:00:24.351Z,14.43
2022-10-21T04:02:52.780Z,18.42
2022-10-21T04:05:19.482Z,16.40
2022-10-21T04:07:50.621Z,15.68
2022-10-21T04:10:24.544Z,18.00
2022-10-21T04:12:51.294Z,15.73
2022-10-21T04:15:18.437Z,16.58
2022-10-21T04:17:52.709Z,14.25
2022-10-21T04:20:21.724Z,16.13
2022-10-21T04:22:48.408Z,19.52
2022-10-21T04:25:17.604Z,17.55
2022-10-21T04:27:44.296Z,15.48
2022-10-21T04:30:13.638Z,13.35
2022-10-21T04:32:40.776Z,18.02
2022-10-21T04:35:07.614Z,11.85
2022-10-21T04:37:34.311Z,14.80
2022-10-21T04:40:03.548Z,11.15
2022-10-21T04:42:30.209Z,15.60
2022-10-21T04:44:56.879Z,11.63
2022-10-21T04:47:23.569Z,18.08
2022-10-21T04:49:50.244Z,14.68
2022-10-21T04:52:16.911Z,12.02
2022-10-21T04:54:48.403Z,14.13
2022-10-21T04:57:15.090Z,11.00
2022-10-21T04:59:41.773Z,12.50
2022-10-21T05:02:10.939Z,15.00
2022-10-21T05:04:39.980Z,9.88
2022-10-21T05:07:06.758Z,15.52
2022-10-21T05:09:38.111Z,15.82
2022-10-21T05:12:04.884Z,15.15
2022-10-21T05:14:34.126Z,13.13
2022-10-21T05:17:00.853Z,10.63
2022-10-21T05:19:31.367Z,14.15
2022-10-21T05:22:00.991Z,11.02
2022-10-21T05:24:27.818Z,16.38
2022-10-21T05:26:56.765Z,16.33
2022-10-21T05:29:23.448Z,16.30
2022-10-21T05:31:50.459Z,20.83
2022-10-21T05:34:17.265Z,16.77
2022-10-21T05:36:43.954Z,17.95
2022-10-21T05:39:12.947Z,15.60
2022-10-21T05:41:41.097Z,15.57
2022-10-21T05:44:09.720Z,14.25
2022-10-21T05:46:38.945Z,10.75
2022-10-21T05:49:06.874Z,11.80
2022-10-21T05:51:33.558Z,14.02
2022-10-21T05:54:00.381Z,13.55
2022-10-21T05:56:29.475Z,13.77
2022-10-21T05:58:56.168Z,9.23
2022-10-21T06:01:25.146Z,11.13
2022-10-21T06:03:51.948Z,13.43
2022-10-21T06:06:21.300Z,13.80
2022-10-21T06:08:48.047Z,11.05
2022-10-21T06:11:21.684Z,17.38
2022-10-21T06:13:48.951Z,11.80
2022-10-21T06:16:16.426Z,17.60
2022-10-21T06:18:43.611Z,16.60
2022-10-21T06:21:10.633Z,21.02
2022-10-21T06:23:38.192Z,17.70
2022-10-21T06:26:13.910Z,16.10
2022-10-21T06:28:42.116Z,11.32
2022-10-21T06:31:11.500Z,16.52
2022-10-21T06:33:38.277Z,11.00
2022-10-21T06:36:05.157Z,10.07
2022-10-21T06:38:34.173Z,12.10
2022-10-21T06:41:03.249Z,12.07
2022-10-21T06:43:30.028Z,11.70
2022-10-21T06:46:05.725Z,11.55
2022-10-21T06:48:32.549Z,12.65
2022-10-21T06:51:01.184Z,14.23
2022-10-21T06:53:28.942Z,12.45
2022-10-21T06:56:09.088Z,10.48
2022-10-21T06:58:43.131Z,8.90
2022-10-21T07:01:21.477Z,17.98
2022-10-21T07:04:03.210Z,11.75
2022-10-21T07:09:00.605Z,16.45
2022-10-21T07:11:27.941Z,13.25
2022-10-21T07:13:59.693Z,11.93
2022-10-21T07:16:30.845Z,11.95
2022-10-21T07:18:57.897Z,12.07
2022-10-21T07:21:29.267Z,10.27
2022-10-21T07:23:59.112Z,13.52
2022-10-21T07:26:30.153Z,16.48
2022-10-21T07:28:58.725Z,16.15
2022-10-21T07:31:28.946Z,12.00
2022-10-21T07:33:56.118Z,12.10
2022-10-21T07:36:27.773Z,12.20
2022-10-21T07:38:59.675Z,10.25
2022-10-21T07:41:33.152Z,14.63
2022-10-21T07:44:00.359Z,12.02
2022-10-21T07:46:27.104Z,17.08
2022-10-21T07:48:53.856Z,16.48
2022-10-21T07:51:28.434Z,15.13
2022-10-21T07:53:57.647Z,14.60
2022-10-21T07:56:27.284Z,11.70
2022-10-21T07:58:54.725Z,13.55
2022-10-21T08:01:22.064Z,9.38
2022-10-21T08:03:49.587Z,10.93
2022-10-21T08:06:19.003Z,11.40
2022-10-21T08:08:46.201Z,14.00
2022-10-21T08:11:24.921Z,13.07
2022-10-21T08:13:54.210Z,16.13
2022-10-21T08:16:23.541Z,12.60
2022-10-21T08:18:52.936Z,14.82
2022-10-21T08:21:20.441Z,12.55
2022-10-21T08:23:51.875Z,11.80
2022-10-21T08:26:19.203Z,16.23
2022-10-21T08:28:48.388Z,19.90
2022-10-21T08:31:20.064Z,12.70
2022-10-21T08:33:46.863Z,15.98
2022-10-21T08:36:20.118Z,17.20
2022-10-21T08:38:50.044Z,13.43
2022-10-21T08:41:34.739Z,14.07
2022-10-21T08:44:22.526Z,21.20
2022-10-21T08:47:04.529Z,22.30
2022-10-21T08:49:58.864Z,13.65
2022-10-21T08:52:44.464Z,13.90
2022-10-21T08:55:17.339Z,15.60
2022-10-21T08:57:44.177Z,15.70
2022-10-21T09:00:31.053Z,10.32
2022-10-21T09:03:11.356Z,13.75
2022-10-21T09:05:40.792Z,13.90
2022-10-21T09:08:18.839Z,12.55
2022-10-21T09:10:51.401Z,8.45
2022-10-21T09:13:37.729Z,12.52
2022-10-21T09:16:21.782Z,8.50
2022-10-21T09:19:07.294Z,11.98
2022-10-21T09:22:33.728Z,11.00
2022-10-21T09:25:04.849Z,10.43
2022-10-21T09:27:51.376Z,11.05
2022-10-21T09:30:22.842Z,11.43
2022-10-21T09:32:51.606Z,13.93
2022-10-21T09:35:36.158Z,12.43
2022-10-21T09:38:12.707Z,14.35
2022-10-21T09:40:41.607Z,12.35
2022-10-21T09:43:20.641Z,12.82
2022-10-21T09:45:47.621Z,13.27
2022-10-21T09:48:17.373Z,10.07
2022-10-21T09:50:49.105Z,7.90
2022-10-21T09:53:29.655Z,10.27
2022-10-21T09:56:12.917Z,8.57
2022-10-21T09:58:42.398Z,8.30
2022-10-21T10:01:30.547Z,8.88
2022-10-21T10:03:57.877Z,7.30
2022-10-21T10:06:40.595Z,6.78
2022-10-21T10:09:32.717Z,6.75
2022-10-21T10:12:04.066Z,7.63
2022-10-21T10:14:34.987Z,8.50
2022-10-21T10:17:26.038Z,10.25
2022-10-21T10:20:05.200Z,5.65
2022-10-21T10:22:38.460Z,6.72
2022-10-21T10:25:10.737Z,6.43
2022-10-21T10:30:15.104Z,7.55
2022-10-21T10:32:41.907Z,9.65
2022-10-21T10:35:28.298Z,8.85
2022-10-21T10:37:58.524Z,8.60
2022-10-21T10:40:41.750Z,7.60
2022-10-21T10:43:33.070Z,9.13
2022-10-21T10:46:01.143Z,10.95
2022-10-21T10:48:37.313Z,7.95
2022-10-21T10:51:28.863Z,9.45
2022-10-21T10:54:28.881Z,5.78
2022-10-21T10:56:56.907Z,6.30
2022-10-21T10:59:23.544Z,7.20
2022-10-21T11:02:08.974Z,12.77
2022-10-21T11:05:05.445Z,6.95
2022-10-21T11:07:45.403Z,10.52
2022-10-21T11:10:29.890Z,9.93
2022-10-21T11:12:56.835Z,5.65
2022-10-21T11:15:49.038Z,10.93
2022-10-21T11:21:16.905Z,5.38
2022-10-21T11:23:56.927Z,7.43
2022-10-21T11:26:33.529Z,7.65
2022-10-21T11:29:12.370Z,11.20
2022-10-21T11:32:12.343Z,8.60
2022-10-21T11:35:08.697Z,5.90
2022-10-21T11:37:41.746Z,6.97
2022-10-21T11:40:19.452Z,6.78
2022-10-21T11:42:51.772Z,6.40
2022-10-21T11:45:33.437Z,9.48
2022-10-21T11:48:12.249Z,6.13
2022-10-21T11:50:38.903Z,6.93
2022-10-21T11:53:27.756Z,10.02
2022-10-21T11:56:29.426Z,4.25
2022-10-21T12:01:57.518Z,6.55
2022-10-21T12:04:41.639Z,7.68
2022-10-21T12:07:46.390Z,8.35
2022-10-21T12:10:30.244Z,5.75
2022-10-21T12:13:04.343Z,5.68
2022-10-21T12:15:41.913Z,7.60
2022-10-21T12:18:15.908Z,5.70
2022-10-21T12:20:50.211Z,6.45
2022-10-21T12:23:25.733Z,5.35
2022-10-21T12:26:23.670Z,2.72
2022-10-21T12:29:10.903Z,4.30
2022-10-21T12:31:46.870Z,5.40
2022-10-21T12:34:16.044Z,4.88
2022-10-21T12:36:46.634Z,2.70
2022-10-21T12:39:32.959Z,4.30
2022-10-21T12:42:22.358Z,5.00
2022-10-21T12:44:51.643Z,2.75
2022-10-21T12:47:31.298Z,3.80
2022-10-21T12:50:17.981Z,2.88
2022-10-21T12:52:49.317Z,2.72
2022-10-21T12:55:25.693Z,2.92
2022-10-21T12:58:02.532Z,4.15
2022-10-21T13:00:29.230Z,1.95
2022-10-21T13:03:23.251Z,2.03
2022-10-21T13:05:52.117Z,3.70
2022-10-21T13:08:24.555Z,2.10
2022-10-21T13:11:08.705Z,4.85
2022-10-21T13:13:43.114Z,2.72
2022-10-21T13:16:18.062Z,2.67
2022-10-21T13:18:51.146Z,1.83
2022-10-21T13:21:29.953Z,2.78
2022-10-21T13:24:05.457Z,2.90
2022-10-21T13:26:32.637Z,2.95
2022-10-21T13:29:13.985Z,5.28
2022-10-21T13:31:45.929Z,3.05
2022-10-21T13:34:33.865Z,3.15
2022-10-21T13:37:11.827Z,5.00
2022-10-21T13:39:38.937Z,3.63
2022-10-21T13:42:16.578Z,4.60
2022-10-21T13:44:51.991Z,3.22
2022-10-21T13:47:30.392Z,3.25
2022-10-21T13:50:18.491Z,1.50
2022-10-21T13:52:45.596Z,2.63
2022-10-21T13:55:21.603Z,3.38
2022-10-21T13:57:52.805Z,3.58
2022-10-21T14:00:28.026Z,3.35
2022-10-21T14:03:05.779Z,5.43
2022-10-21T14:05:51.634Z,2.17
2022-10-21T14:08:29.943Z,3.60
2022-10-21T14:11:02.610Z,4.63
2022-10-21T14:13:36.490Z,2.13
2022-10-21T14:16:04.990Z,3.58
2022-10-21T14:18:37.261Z,1.45
2022-10-21T14:21:05.631Z,4.47
2022-10-21T14:23:34.821Z,1.85
2022-10-21T14:26:11.034Z,1.42
2022-10-21T14:28:40.562Z,1.55
2022-10-21T14:31:11.800Z,2.28
2022-10-21T14:33:45.009Z,1.75
2022-10-21T14:36:24.824Z,2.45
2022-10-21T14:39:00.772Z,2.08
2022-10-21T14:41:35.237Z,4.60
2022-10-21T14:44:17.073Z,1.48
2022-10-21T14:46:49.619Z,3.70
2022-10-21T14:49:46.403Z,3.47
2022-10-21T14:52:23.116Z,2.05
2022-10-21T14:55:01.123Z,1.38
2022-10-21T14:57:41.312Z,1.67
2022-10-21T15:00:30.261Z,1.42
2022-10-21T15:02:59.174Z,1.95
2022-10-21T15:05:34.269Z,1.33
2022-10-21T15:08:21.586Z,1.27
2022-10-21T15:10:57.844Z,1.60
2022-10-21T15:13:26.718Z,2.53
2022-10-21T15:15:55.858Z,1.30
2022-10-21T15:18:47.615Z,2.47
2022-10-21T15:21:23.783Z,4.57
2022-10-21T15:23:51.920Z,2.10
2022-10-21T15:26:34.231Z,2.22
2022-10-21T15:29:11.113Z,4.10
2022-10-21T15:31:37.815Z,4.25
2022-10-21T15:34:06.322Z,3.42
2022-10-21T15:36:32.992Z,4.70
2022-10-21T15:39:05.380Z,3.60
2022-10-21T15:41:39.909Z,3.72
2022-10-21T15:44:36.992Z,5.18
2022-10-21T15:47:11.251Z,4.60
2022-10-21T15:49:42.605Z,8.85
2022-10-21T15:52:09.985Z,5.68
2022-10-21T15:54:36.676Z,3.80
2022-10-21T15:57:17.541Z,5.22
2022-10-21T15:59:44.735Z,5.47
2022-10-21T16:02:17.087Z,4.63
2022-10-21T16:04:44.913Z,4.68
2022-10-21T16:07:23.003Z,5.28
2022-10-21T16:09:50.063Z,6.65
2022-10-21T16:12:23.032Z,4.35
2022-10-21T16:14:49.766Z,4.80
2022-10-21T16:17:19.234Z,6.70
2022-10-21T16:19:45.913Z,5.00
2022-10-21T16:22:21.894Z,5.53
2022-10-21T16:24:48.770Z,2.72
2022-10-21T16:27:31.166Z,4.25
2022-10-21T16:30:15.972Z,6.57
2022-10-21T16:32:49.982Z,4.07
2022-10-21T16:35:24.225Z,4.13
2022-10-21T16:38:17.778Z,7.03
2022-10-21T16:40:44.463Z,7.57
2022-10-21T16:43:12.703Z,6.25
2022-10-21T16:48:26.535Z,10.95
2022-10-21T16:50:57.832Z,10.75
2022-10-21T16:53:28.906Z,5.85
2022-10-21T16:55:57.997Z,4.73
2022-10-21T16:58:24.797Z,5.60
2022-10-21T17:00:53.770Z,4.75
2022-10-21T17:03:20.482Z,10.70
2022-10-21T17:05:47.211Z,7.80
2022-10-21T17:08:14.335Z,5.45
2022-10-21T17:10:43.545Z,6.40
2022-10-21T17:13:12.165Z,9.18
2022-10-21T17:15:41.459Z,7.53
2022-10-21T17:18:10.659Z,7.80
2022-10-21T17:20:40.039Z,5.38
2022-10-21T17:23:06.813Z,12.95
2022-10-21T17:25:36.380Z,6.80
2022-10-21T17:28:03.127Z,10.02
2022-10-21T17:30:32.122Z,7.85
2022-10-21T17:32:58.777Z,10.50
2022-10-21T17:35:25.474Z,7.15
2022-10-21T17:37:54.452Z,7.70
2022-10-21T17:40:24.868Z,10.52
2022-10-21T17:42:52.180Z,6.80
2022-10-21T17:45:22.967Z,6.47
2022-10-21T17:47:50.972Z,4.32
2022-10-21T17:50:23.384Z,3.38
2022-10-21T17:52:53.112Z,4.65
2022-10-21T17:55:20.022Z,5.18
2022-10-21T17:57:46.834Z,6.07
2022-10-21T18:00:15.925Z,7.25
2022-10-21T18:02:44.931Z,6.78
2022-10-21T18:05:11.758Z,4.85
2022-10-21T18:07:39.173Z,2.42
2022-10-21T18:10:11.112Z,4.13
2022-10-21T18:12:40.429Z,3.38
2022-10-21T18:15:07.844Z,2.65
2022-10-21T18:17:34.811Z,3.25
2022-10-21T18:20:01.569Z,11.40
2022-10-21T18:22:30.888Z,8.45
2022-10-21T18:24:57.561Z,11.02
2022-10-21T18:27:26.562Z,7.82
2022-10-21T18:29:55.454Z,6.80
2022-10-21T18:32:22.204Z,5.38
2022-10-21T18:34:53.675Z,8.57
2022-10-21T18:37:22.584Z,5.72
2022-10-21T18:39:49.331Z,7.60
2022-10-21T18:42:16.023Z,4.97
2022-10-21T18:44:45.062Z,4.78
2022-10-21T18:47:12.236Z,4.38
2022-10-21T18:49:38.951Z,5.78
2022-10-21T18:52:06.025Z,8.48
2022-10-21T18:54:35.263Z,7.18
2022-10-21T18:57:02.143Z,3.28
2022-10-21T18:59:28.842Z,6.80
2022-10-21T19:01:55.889Z,6.75
2022-10-21T19:04:25.648Z,5.32
2022-10-21T19:06:52.354Z,4.57
2022-10-21T19:09:24.414Z,2.90
2022-10-21T19:14:21.261Z,5.75
2022-10-21T19:16:51.214Z,2.63
2022-10-21T19:19:18.013Z,2.95
2022-10-21T19:21:44.792Z,4.88
2022-10-21T19:24:12.105Z,4.47
2022-10-21T19:26:41.292Z,4.13
2022-10-21T19:29:17.145Z,8.27
2022-10-21T19:34:26.296Z,5.90
2022-10-21T19:36:53.103Z,3.15
2022-10-21T19:39:20.278Z,3.78
2022-10-21T19:41:49.927Z,4.45
2022-10-21T19:44:16.736Z,8.55
2022-10-21T19:46:50.914Z,7.30
2022-10-21T19:49:22.489Z,6.47
2022-10-21T19:51:53.876Z,11.48
2022-10-21T19:54:23.164Z,6.53
2022-10-21T19:56:52.621Z,6.18
2022-10-21T19:59:24.993Z,6.03
2022-10-21T20:01:56.489Z,3.28
2022-10-21T20:04:25.519Z,4.88
2022-10-21T20:06:58.944Z,2.90
2022-10-21T20:09:32.769Z,3.72
2022-10-21T20:12:06.253Z,5.18
2022-10-21T20:14:33.004Z,5.00
2022-10-21T20:16:59.676Z,3.60
2022-10-21T20:19:26.478Z,4.88
2022-10-21T20:21:53.149Z,3.95
2022-10-21T20:24:22.077Z,2.97
2022-10-21T20:26:49.141Z,2.55
2022-10-21T20:29:16.012Z,3.35
2022-10-21T20:31:48.472Z,7.43
2022-10-21T20:34:22.336Z,6.22
2022-10-21T20:36:49.067Z,3.05
2022-10-21T20:39:18.347Z,4.10
2022-10-21T20:41:47.628Z,5.25
2022-10-21T20:44:17.242Z,4.68
2022-10-21T20:46:47.624Z,3.10
2022-10-21T20:49:14.501Z,2.95
2022-10-21T20:51:46.970Z,3.00
2022-10-21T20:54:17.747Z,2.97
2022-10-21T20:56:45.088Z,9.20
2022-10-21T20:59:17.444Z,8.75
2022-10-21T21:01:46.492Z,3.63
2022-10-21T21:04:20.521Z,5.75
2022-10-21T21:06:51.410Z,2.47
2022-10-21T21:12:10.723Z,3.42
2022-10-21T21:14:37.575Z,3.60
2022-10-21T21:17:06.833Z,7.38
2022-10-21T21:19:33.792Z,6.53
2022-10-21T21:22:03.797Z,5.07
2022-10-21T21:24:32.917Z,4.35
2022-10-21T21:27:02.132Z,2.95
2022-10-21T21:29:31.043Z,2.40
2022-10-21T21:31:57.727Z,12.32
2022-10-21T21:34:24.510Z,4.18
2022-10-21T21:36:53.431Z,10.70
2022-10-21T21:39:22.290Z,5.53
2022-10-21T21:41:49.265Z,9.60
2022-10-21T21:44:15.997Z,7.68
2022-10-21T21:46:44.900Z,5.70
2022-10-21T21:49:11.654Z,11.00
2022-10-21T21:51:38.367Z,6.85
2022-10-21T21:54:06.751Z,8.82
2022-10-21T21:56:36.200Z,7.80
2022-10-21T21:59:05.512Z,9.05
2022-10-21T22:01:32.427Z,3.97
2022-10-21T22:04:03.048Z,5.55
2022-10-21T22:06:34.979Z,3.95
2022-10-21T22:11:31.914Z,8.27
2022-10-21T22:14:01.399Z,5.82
2022-10-21T22:16:30.150Z,8.40
2022-10-21T22:18:59.878Z,4.43
2022-10-21T22:21:29.760Z,4.68
2022-10-21T22:23:59.341Z,3.40
2022-10-21T22:26:26.984Z,3.67
2022-10-21T22:28:56.282Z,5.32
2022-10-21T22:31:28.948Z,5.25
2022-10-21T22:34:00.344Z,2.85
2022-10-21T22:36:31.673Z,4.10
2022-10-21T22:38:58.488Z,7.30
2022-10-21T22:41:27.512Z,5.93
2022-10-21T22:43:54.276Z,4.95
2022-10-21T22:46:32.838Z,7.32
2022-10-21T22:49:01.216Z,4.40
2022-10-21T22:51:27.913Z,4.55
2022-10-21T22:53:56.480Z,5.10
2022-10-21T22:56:26.635Z,9.70
2022-10-21T22:58:53.609Z,6.75
2022-10-21T23:01:20.423Z,12.35
2022-10-21T23:03:49.730Z,4.03
2022-10-21T23:06:16.447Z,4.07
2022-10-21T23:08:45.707Z,6.30
2022-10-21T23:11:14.770Z,4.80
2022-10-21T23:13:51.232Z,5.40
2022-10-21T23:16:30.637Z,7.85
2022-10-21T23:18:57.472Z,7.40
2022-10-21T23:21:24.174Z,9.63
2022-10-21T23:23:54.048Z,5.85
2022-10-21T23:26:21.186Z,5.85
2022-10-21T23:28:52.411Z,8.45
2022-10-21T23:31:19.771Z,10.98
2022-10-21T23:33:49.567Z,6.78
2022-10-21T23:36:18.791Z,6.30
2022-10-21T23:38:47.721Z,7.10
2022-10-21T23:41:14.432Z,4.63
2022-10-21T23:43:43.724Z,6.00
2022-10-21T23:46:13.000Z,7.38
2022-10-21T23:48:41.982Z,7.88
2022-10-21T23:51:08.758Z,4.80
2022-10-21T23:53:35.477Z,8.18
2022-10-21T23:56:02.262Z,7.13
2022-10-21T23:58:31.603Z,7.00
